Time;durP1;ratioP1;P1;durP2;ratioP2;P2;SDS_P1;SDS_P2;PMS_P1;PMS_P2;Temp;Humidity;BMP_temperature;BMP_pressure;BME280_temperature;BME280_humidity;BME280_pressure;Samples;Min_cycle;Max_cycle;Signal;HPM_P1;HPM_P2
2022/05/18 00:01:00;;;;;;;4.40;3.27;;;;;;;15.68;98.64;98619.78;5103397;28;20574;-71
2022/05/18 00:03:29;;;;;;;3.53;3.10;;;;;;;15.70;98.77;98620.53;5099621;28;20234;-71
2022/05/18 00:05:56;;;;;;;3.43;3.13;;;;;;;15.73;98.35;98614.94;5097538;28;20285;-71
2022/05/18 00:08:23;;;;;;;3.63;3.13;;;;;;;15.71;98.10;98624.88;5099687;28;20218;-71
2022/05/18 00:10:51;;;;;;;3.20;2.90;;;;;;;15.69;97.64;98621.47;5102951;28;20338;-71
2022/05/18 00:13:19;;;;;;;4.67;3.30;;;;;;;15.63;97.07;98616.69;5099411;28;20215;-71
2022/05/18 00:15:47;;;;;;;4.10;3.30;;;;;;;15.54;96.27;98618.28;5099114;28;20582;-71
2022/05/18 00:18:14;;;;;;;3.57;3.27;;;;;;;15.46;96.16;98619.88;5100022;28;20223;-70
2022/05/18 00:20:41;;;;;;;3.80;3.40;;;;;;;15.39;96.80;98624.81;5102547;28;20206;-70
2022/05/18 00:23:07;;;;;;;4.00;3.60;;;;;;;15.30;97.30;98619.38;5099175;28;20225;-71
2022/05/18 00:25:37;;;;;;;5.03;3.30;;;;;;;15.24;98.56;98620.72;5099171;28;20218;-71
2022/05/18 00:28:06;;;;;;;3.83;3.33;;;;;;;15.17;99.60;98618.66;5105554;28;20210;-71
2022/05/18 00:30:34;;;;;;;4.00;3.50;;;;;;;15.14;100.00;98624.22;5110083;28;20210;-70
2022/05/18 00:33:04;;;;;;;4.17;3.63;;;;;;;15.15;100.00;98625.94;5098515;28;20219;-71
2022/05/18 00:35:32;;;;;;;4.53;3.70;;;;;;;15.18;100.00;98625.69;5098979;28;20215;-71
2022/05/18 00:37:58;;;;;;;4.63;3.57;;;;;;;15.20;100.00;98629.06;5100156;28;20584;-72
2022/05/18 00:40:25;;;;;;;3.60;3.30;;;;;;;15.17;100.00;98624.84;5101688;28;20221;-71
2022/05/18 00:42:51;;;;;;;4.83;3.20;;;;;;;15.15;100.00;98628.59;5098503;28;20207;-71
2022/05/18 00:45:19;;;;;;;4.43;3.67;;;;;;;15.15;100.00;98631.25;5098871;28;20257;-71
2022/05/18 00:47:46;;;;;;;4.03;3.07;;;;;;;15.14;100.00;98626.88;5099629;28;20698;-71
2022/05/18 00:50:18;;;;;;;4.03;3.63;;;;;;;15.12;100.00;98626.16;5101887;28;20218;-71
2022/05/18 00:52:48;;;;;;;3.83;3.37;;;;;;;15.02;100.00;98623.38;5098697;28;20210;-71
2022/05/18 00:55:20;;;;;;;4.13;3.40;;;;;;;14.99;100.00;98620.13;5098579;28;20226;-71
2022/05/18 00:57:51;;;;;;;3.93;3.53;;;;;;;14.93;100.00;98625.94;5099389;28;20217;-71
2022/05/18 01:00:20;;;;;;;4.63;3.77;;;;;;;14.91;100.00;98617.22;5110129;28;20221;-70
2022/05/18 01:02:52;;;;;;;4.13;3.37;;;;;;;14.90;100.00;98623.53;5112471;28;20578;-71
2022/05/18 01:05:27;;;;;;;6.33;4.10;;;;;;;14.86;100.00;98616.75;5112384;28;20237;-72
2022/05/18 01:07:58;;;;;;;3.97;3.60;;;;;;;14.81;100.00;98614.44;5110572;28;20217;-70
2022/05/18 01:10:24;;;;;;;4.53;3.53;;;;;;;14.72;100.00;98614.31;5111535;28;20225;-71
2022/05/18 01:12:51;;;;;;;4.27;3.87;;;;;;;14.68;100.00;98612.84;5104886;28;20672;-70
2022/05/18 01:15:21;;;;;;;5.20;3.87;;;;;;;14.65;100.00;98615.75;5098808;28;20211;-70
2022/05/18 01:17:53;;;;;;;3.80;3.40;;;;;;;14.64;100.00;98620.22;5100910;28;20222;-70
2022/05/18 01:20:23;;;;;;;4.63;3.97;;;;;;;14.61;100.00;98620.44;5098256;28;20591;-70
2022/05/18 01:22:57;;;;;;;4.47;4.03;;;;;;;14.59;100.00;98621.53;5096610;28;20217;-70
2022/05/18 01:25:38;;;;;;;4.40;4.00;;;;;;;14.59;100.00;98624.19;5101260;28;20239;-70
2022/05/18 01:28:07;;;;;;;3.90;3.57;;;;;;;14.58;100.00;98628.69;5100393;28;20206;-70
2022/05/18 01:30:35;;;;;;;4.20;3.80;;;;;;;14.54;100.00;98629.88;5109551;28;20221;-70
2022/05/18 01:33:07;;;;;;;5.87;4.00;;;;;;;14.52;100.00;98622.97;5107936;28;20225;-70
2022/05/18 01:35:38;;;;;;;4.27;3.87;;;;;;;14.54;100.00;98629.06;5107280;28;20321;-70
2022/05/18 01:38:06;;;;;;;4.30;3.90;;;;;;;14.57;100.00;98631.47;5109567;28;20214;-71
2022/05/18 01:40:39;;;;;;;4.37;3.70;;;;;;;14.58;100.00;98625.16;5109510;28;20587;-71
2022/05/18 01:43:13;;;;;;;5.03;3.53;;;;;;;14.54;100.00;98634.38;5106038;28;20245;-71
2022/05/18 01:45:40;;;;;;;4.97;3.73;;;;;;;14.50;100.00;98633.75;5101692;28;20233;-71
2022/05/18 01:48:11;;;;;;;4.30;3.67;;;;;;;14.45;100.00;98640.38;5109115;28;20675;-71
2022/05/18 01:50:39;;;;;;;4.37;3.63;;;;;;;14.45;100.00;98643.03;5107121;28;20220;-71
2022/05/18 01:53:06;;;;;;;4.13;3.73;;;;;;;14.39;100.00;98641.72;5105103;28;20688;-71
2022/05/18 01:55:33;;;;;;;4.37;3.93;;;;;;;14.40;100.00;98642.53;5109208;28;20214;-71
2022/05/18 01:58:00;;;;;;;4.90;3.77;;;;;;;14.37;100.00;98640.13;5109084;28;20679;-70
2022/05/18 02:00:28;;;;;;;4.90;3.73;;;;;;;14.35;100.00;98644.72;5108813;28;20221;-72
2022/05/18 02:02:55;;;;;;;4.07;3.63;;;;;;;14.31;100.00;98644.09;5105584;28;20217;-70
2022/05/18 02:05:22;;;;;;;5.23;3.80;;;;;;;14.31;100.00;98643.25;5109098;28;20274;-71
2022/05/18 02:07:48;;;;;;;4.27;3.83;;;;;;;14.27;100.00;98645.31;5109158;28;20578;-71
2022/05/18 02:10:15;;;;;;;4.73;3.93;;;;;;;14.23;100.00;98635.84;5109291;28;20218;-72
2022/05/18 02:12:41;;;;;;;4.30;3.90;;;;;;;14.16;100.00;98636.38;5104936;28;20222;-71
2022/05/18 02:15:09;;;;;;;3.80;3.50;;;;;;;14.10;100.00;98629.75;5107267;28;20225;-71
2022/05/18 02:17:38;;;;;;;4.53;3.70;;;;;;;14.06;100.00;98632.75;5108936;28;20566;-70
2022/05/18 02:20:06;;;;;;;4.67;3.90;;;;;;;13.99;100.00;98637.66;5109091;28;20275;-70
2022/05/18 02:22:33;;;;;;;4.10;3.77;;;;;;;13.91;100.00;98634.75;5104959;28;20226;-70
2022/05/18 02:25:00;;;;;;;5.93;4.30;;;;;;;13.90;100.00;98634.84;5097384;28;20594;-71
2022/05/18 02:27:26;;;;;;;5.37;4.50;;;;;;;13.87;100.00;98637.75;5099190;28;20215;-71
2022/05/18 02:29:53;;;;;;;5.80;4.40;;;;;;;13.83;100.00;98645.09;5108980;28;20213;-70
2022/05/18 02:32:19;;;;;;;6.20;4.53;;;;;;;13.84;100.00;98637.97;5104927;28;20214;-71
2022/05/18 02:34:47;;;;;;;5.57;4.43;;;;;;;13.82;100.00;98629.28;5108508;28;20213;-71
2022/05/18 02:37:14;;;;;;;4.87;4.37;;;;;;;13.80;100.00;98631.16;5108887;28;20228;-70
2022/05/18 02:39:40;;;;;;;4.93;4.43;;;;;;;13.77;100.00;98637.59;5108688;28;20235;-71
2022/05/18 02:42:07;;;;;;;5.33;4.80;;;;;;;13.76;100.00;98643.84;5103714;28;20211;-70
2022/05/18 02:44:34;;;;;;;4.67;4.23;;;;;;;13.73;100.00;98645.88;5108291;28;20249;-71
2022/05/18 02:47:01;;;;;;;5.20;4.20;;;;;;;13.71;100.00;98647.81;5108442;28;20679;-70
2022/05/18 02:49:28;;;;;;;4.63;4.00;;;;;;;13.73;100.00;98645.88;5108506;28;20210;-70
2022/05/18 02:51:56;;;;;;;5.43;4.40;;;;;;;13.74;100.00;98652.91;5105611;28;20215;-70
2022/05/18 02:57:08;;;;;;;5.57;4.57;;;;;;;13.79;100.00;98662.22;5108619;28;20690;-70
2022/05/18 02:59:35;;;;;;;6.83;5.00;;;;;;;13.88;100.00;98660.69;5107238;28;20249;-70
2022/05/18 03:02:02;;;;;;;9.10;5.67;;;;;;;13.93;100.00;98663.88;5106589;28;20217;-70
2022/05/18 03:04:30;;;;;;;6.53;5.30;;;;;;;13.94;100.00;98665.56;5108796;28;20244;-70
2022/05/18 03:06:58;;;;;;;5.80;5.20;;;;;;;13.98;100.00;98669.66;5110736;28;20525;-71
2022/05/18 03:09:24;;;;;;;5.93;5.10;;;;;;;13.95;100.00;98664.59;5111061;28;20227;-70
2022/05/18 03:11:51;;;;;;;6.87;5.43;;;;;;;14.01;100.00;98661.47;5109604;28;20210;-72
2022/05/18 03:14:18;;;;;;;7.80;5.60;;;;;;;14.00;100.00;98673.09;5111944;28;20263;-71
2022/05/18 03:16:45;;;;;;;7.60;5.77;;;;;;;13.99;100.00;98658.94;5111970;28;20220;-70
2022/05/18 03:19:13;;;;;;;6.03;5.40;;;;;;;14.00;100.00;98671.25;5110902;28;20671;-70
2022/05/18 03:24:25;;;;;;;6.37;5.47;;;;;;;14.01;100.00;98670.31;5111864;28;20639;-71
2022/05/18 03:26:51;;;;;;;6.10;5.27;;;;;;;13.93;100.00;98677.16;5112000;28;20217;-70
2022/05/18 03:29:18;;;;;;;9.00;6.37;;;;;;;13.80;100.00;98676.34;5101624;28;20217;-71
2022/05/18 03:31:46;;;;;;;6.40;5.80;;;;;;;13.71;100.00;98677.03;5111979;28;20214;-70
2022/05/18 03:34:12;;;;;;;7.00;5.73;;;;;;;13.67;100.00;98679.06;5109942;28;20249;-71
2022/05/18 03:36:39;;;;;;;7.43;5.60;;;;;;;13.66;100.00;98676.50;5111651;28;20691;-70
2022/05/18 03:39:07;;;;;;;6.70;5.53;;;;;;;13.66;100.00;98676.50;5108900;28;20230;-71
2022/05/18 03:41:35;;;;;;;8.40;6.30;;;;;;;13.66;100.00;98671.19;5110759;28;20283;-70
2022/05/18 03:44:01;;;;;;;7.47;6.10;;;;;;;13.68;100.00;98685.25;5111412;28;20711;-70
2022/05/18 03:46:28;;;;;;;6.67;5.87;;;;;;;13.66;100.00;98681.81;5111604;28;20233;-70
2022/05/18 03:48:54;;;;;;;8.03;6.03;;;;;;;13.70;100.00;98678.00;5108944;28;20228;-70
2022/05/18 03:51:21;;;;;;;7.93;6.53;;;;;;;13.73;100.00;98678.63;5110034;28;20218;-70
2022/05/18 03:53:47;;;;;;;6.80;6.10;;;;;;;13.78;100.00;98680.94;5111601;28;20216;-72
2022/05/18 03:56:15;;;;;;;8.57;6.20;;;;;;;13.78;100.00;98680.94;5111238;28;20225;-71
2022/05/18 03:58:43;;;;;;;8.20;6.20;;;;;;;13.73;100.00;98677.75;5107975;28;20213;-71
2022/05/18 04:01:10;;;;;;;8.60;6.40;;;;;;;13.72;100.00;98681.38;5109422;28;20223;-70
2022/05/18 04:03:38;;;;;;;9.57;6.70;;;;;;;13.69;100.00;98685.09;5111185;28;20221;-70
2022/05/18 04:06:06;;;;;;;9.17;6.60;;;;;;;13.67;100.00;98684.38;5111267;28;20256;-70
2022/05/18 04:08:33;;;;;;;7.60;6.10;;;;;;;13.72;100.00;98692.88;5108792;28;20210;-70
2022/05/18 04:11:00;;;;;;;7.97;6.37;;;;;;;13.78;100.00;98700.38;5109522;28;20218;-70
2022/05/18 04:13:27;;;;;;;8.43;7.03;;;;;;;13.82;100.00;98699.19;5111269;28;20214;-70
2022/05/18 04:15:56;;;;;;;7.87;7.00;;;;;;;13.92;100.00;98697.56;5110741;28;20213;-70
2022/05/18 04:18:23;;;;;;;8.17;6.47;;;;;;;14.01;100.00;98701.34;5102726;28;20218;-70
2022/05/18 04:20:51;;;;;;;7.33;6.47;;;;;;;14.16;100.00;98713.47;5100772;28;20213;-71
2022/05/18 04:23:18;;;;;;;7.03;6.20;;;;;;;14.19;100.00;98714.13;5098926;28;20213;-71
2022/05/18 04:25:44;;;;;;;8.87;6.50;;;;;;;14.22;100.00;98713.06;5097318;28;20230;-71
2022/05/18 04:28:13;;;;;;;11.67;7.10;;;;;;;14.31;100.00;98707.06;5104892;28;20213;-71
2022/05/18 04:30:41;;;;;;;10.37;7.03;;;;;;;14.38;100.00;98708.31;5111707;28;20209;-71
2022/05/18 04:33:09;;;;;;;7.13;6.33;;;;;;;14.42;100.00;98704.47;5098900;28;20211;-70
2022/05/18 04:35:36;;;;;;;10.37;6.73;;;;;;;14.50;100.00;98712.69;5099059;28;20226;-70
2022/05/18 04:38:02;;;;;;;10.47;7.33;;;;;;;14.59;100.00;98711.97;5101474;28;20222;-70
2022/05/18 04:40:29;;;;;;;8.47;6.33;;;;;;;14.64;100.00;98718.66;5100625;28;20682;-70
2022/05/18 04:42:56;;;;;;;7.67;6.60;;;;;;;14.74;100.00;98724.13;5098728;28;20247;-70
2022/05/18 04:45:23;;;;;;;9.87;7.40;;;;;;;14.82;100.00;98725.25;5098442;28;20319;-70
2022/05/18 04:47:51;;;;;;;7.53;6.67;;;;;;;14.91;100.00;98726.34;5100908;28;20214;-70
2022/05/18 04:50:20;;;;;;;9.53;6.47;;;;;;;14.96;100.00;98718.88;5100355;28;20576;-70
2022/05/18 04:52:47;;;;;;;9.13;7.23;;;;;;;15.07;100.00;98733.03;5097400;28;20664;-71
2022/05/18 04:55:14;;;;;;;8.10;6.20;;;;;;;15.21;100.00;98731.97;5098740;28;20211;-71
2022/05/18 04:57:40;;;;;;;9.23;6.73;;;;;;;15.40;100.00;98737.56;5100700;28;20582;-70
2022/05/18 05:00:10;;;;;;;7.63;6.20;;;;;;;15.52;100.00;98747.25;5100256;28;20241;-71
2022/05/18 05:02:37;;;;;;;8.87;6.13;;;;;;;15.68;100.00;98739.72;5098232;28;20214;-70
2022/05/18 05:05:05;;;;;;;8.10;6.00;;;;;;;15.87;100.00;98747.91;5098219;28;20688;-72
2022/05/18 05:07:33;;;;;;;8.60;6.13;;;;;;;16.08;100.00;98752.34;5100477;28;20207;-70
2022/05/18 05:10:00;;;;;;;6.53;5.47;;;;;;;16.27;100.00;98757.91;5099794;28;20206;-70
2022/05/18 05:12:26;;;;;;;6.23;5.60;;;;;;;16.49;100.00;98758.69;5098343;28;20218;-70
2022/05/18 05:14:53;;;;;;;7.73;6.10;;;;;;;16.80;100.00;98757.81;5098322;28;20215;-71
2022/05/18 05:17:19;;;;;;;7.03;6.03;;;;;;;17.43;98.16;98754.16;5098557;28;20268;-70
2022/05/18 05:19:46;;;;;;;6.00;5.43;;;;;;;18.08;93.23;98747.34;5100291;28;20210;-71
2022/05/18 05:22:12;;;;;;;6.20;5.37;;;;;;;18.75;88.97;98745.59;5098335;28;20218;-70
2022/05/18 05:24:40;;;;;;;6.77;5.30;;;;;;;19.46;84.81;98746.91;5098043;28;20214;-71
2022/05/18 05:27:07;;;;;;;5.33;4.70;;;;;;;20.22;81.17;98752.75;5099381;28;20222;-71
2022/05/18 05:29:33;;;;;;;7.23;5.37;;;;;;;21.04;76.64;98754.22;5107644;28;20211;-70
2022/05/18 05:32:06;;;;;;;6.63;5.93;;;;;;;21.76;71.41;98752.03;5108417;28;20219;-70
2022/05/18 05:34:32;;;;;;;7.87;4.97;;;;;;;22.42;67.94;98752.97;5097844;28;20214;-72
2022/05/18 05:36:58;;;;;;;7.77;5.37;;;;;;;22.99;64.06;98757.44;5099756;28;20242;-71
2022/05/18 05:39:25;;;;;;;5.67;4.93;;;;;;;23.50;62.05;98756.25;5100058;28;20213;-70
2022/05/18 05:41:53;;;;;;;6.93;5.07;;;;;;;23.85;60.19;98762.06;5097876;28;20226;-70
2022/05/18 05:44:20;;;;;;;5.13;4.57;;;;;;;24.13;59.71;98760.63;5095609;28;20719;-71
2022/05/18 05:46:46;;;;;;;4.90;4.23;;;;;;;24.55;57.48;98763.78;5099065;28;20253;-71
2022/05/18 05:49:13;;;;;;;5.20;4.20;;;;;;;24.92;55.01;98768.47;5100298;28;20240;-70
2022/05/18 05:51:39;;;;;;;5.67;4.20;;;;;;;25.21;54.67;98766.69;5097547;28;20692;-70
2022/05/18 05:54:07;;;;;;;4.97;4.23;;;;;;;25.35;53.87;98776.75;5097778;28;20214;-72
2022/05/18 05:56:33;;;;;;;5.33;4.50;;;;;;;25.44;53.31;98785.63;5098616;28;20630;-71
2022/05/18 05:59:01;;;;;;;4.83;4.30;;;;;;;25.54;53.04;98780.81;5100618;28;20220;-70
2022/05/18 06:01:28;;;;;;;4.70;4.30;;;;;;;25.72;52.63;98786.72;5097353;28;20218;-70
2022/05/18 06:03:54;;;;;;;5.70;4.10;;;;;;;25.89;52.08;98778.22;5097653;28;20213;-70
2022/05/18 06:06:21;;;;;;;5.00;4.50;;;;;;;26.09;51.23;98771.22;5098326;28;20238;-70
2022/05/18 06:08:48;;;;;;;4.90;4.40;;;;;;;26.22;50.37;98770.56;5099327;28;20225;-71
2022/05/18 06:11:14;;;;;;;4.70;4.23;;;;;;;26.23;50.36;98773.09;5096751;28;20210;-72
2022/05/18 06:13:41;;;;;;;4.60;4.20;;;;;;;26.32;49.94;98776.53;5097517;28;20218;-71
2022/05/18 06:16:09;;;;;;;6.10;4.10;;;;;;;26.46;49.04;98779.22;5097731;28;20214;-70
2022/05/18 06:18:36;;;;;;;5.33;3.90;;;;;;;26.63;47.88;98780.69;5100897;28;20249;-71
2022/05/18 06:21:03;;;;;;;5.77;3.47;;;;;;;26.83;47.74;98786.34;5097526;28;20211;-71
2022/05/18 06:23:30;;;;;;;3.70;3.40;;;;;;;27.10;47.32;98778.28;5097305;28;20283;-71
2022/05/18 06:26:01;;;;;;;5.17;3.73;;;;;;;27.37;46.11;98785.66;5097400;28;20238;-70
2022/05/18 06:28:28;;;;;;;5.47;3.53;;;;;;;27.33;46.28;98789.81;5102199;28;20211;-71
2022/05/18 06:30:54;;;;;;;5.73;3.67;;;;;;;27.27;46.19;98785.16;5108505;28;20606;-70
2022/05/18 06:33:22;;;;;;;4.87;3.47;;;;;;;27.37;46.85;98792.97;5097414;28;20222;-73
2022/05/18 06:35:51;;;;;;;5.93;4.20;;;;;;;27.58;45.45;98791.06;5096013;28;20226;-71
2022/05/18 06:38:18;;;;;;;4.40;3.87;;;;;;;27.47;45.93;98788.88;5100503;28;20217;-71
2022/05/18 06:43:29;;;;;;;4.20;3.63;;;;;;;27.23;46.62;98789.28;5101165;28;20252;-72
2022/05/18 06:45:56;;;;;;;4.30;3.67;;;;;;;27.19;45.87;98788.00;5110939;28;20245;-72
2022/05/18 06:48:24;;;;;;;4.70;3.40;;;;;;;27.01;46.91;98784.03;5102258;28;20576;-72
2022/05/18 06:50:50;;;;;;;4.63;3.70;;;;;;;26.61;47.89;98793.63;5100878;28;20289;-71
2022/05/18 06:53:17;;;;;;;4.57;4.00;;;;;;;25.54;49.54;98792.47;5100732;28;20222;-72
2022/05/18 06:55:43;;;;;;;3.67;3.10;;;;;;;24.32;54.73;98792.59;5103366;28;20215;-72
2022/05/18 06:58:10;;;;;;;3.77;3.47;;;;;;;23.46;59.17;98790.00;5102347;28;20210;-72
2022/05/18 07:00:36;;;;;;;4.10;3.70;;;;;;;22.92;62.48;98791.47;5100585;28;20218;-71
2022/05/18 07:03:03;;;;;;;5.87;3.80;;;;;;;22.63;64.19;98793.81;5099722;28;20217;-71
2022/05/18 07:05:31;;;;;;;4.20;3.47;;;;;;;22.38;64.74;98794.69;5102835;28;20211;-71
2022/05/18 07:07:58;;;;;;;5.07;3.83;;;;;;;22.19;65.03;98794.97;5102660;28;20252;-72
2022/05/18 07:10:26;;;;;;;4.80;4.30;;;;;;;22.09;64.93;98793.41;5102101;28;20206;-71
2022/05/18 07:12:53;;;;;;;4.37;3.70;;;;;;;21.99;65.69;98793.53;5110893;28;20217;-71
2022/05/18 07:15:19;;;;;;;5.63;3.80;;;;;;;21.92;65.69;98791.66;5108999;28;20206;-71
2022/05/18 07:17:46;;;;;;;5.63;4.20;;;;;;;21.85;66.68;98801.38;5108752;28;20225;-71
2022/05/18 07:20:13;;;;;;;5.17;3.70;;;;;;;21.89;68.81;98802.75;5110656;28;20786;-70
2022/05/18 07:22:41;;;;;;;3.70;3.27;;;;;;;21.96;67.21;98796.56;5111080;28;20214;-71
2022/05/18 07:25:08;;;;;;;3.67;3.20;;;;;;;22.05;66.93;98792.91;5108940;28;20206;-71
2022/05/18 07:27:35;;;;;;;5.97;3.10;;;;;;;22.19;68.14;98794.97;5106777;28;20237;-71
2022/05/18 07:30:03;;;;;;;3.17;2.80;;;;;;;22.35;65.84;98797.72;5104756;28;20585;-70
2022/05/18 07:32:29;;;;;;;3.57;3.27;;;;;;;22.49;64.74;98786.34;5110607;28;20225;-70
2022/05/18 07:34:56;;;;;;;5.13;3.10;;;;;;;22.58;63.50;98788.06;5109453;28;20210;-71
2022/05/18 07:37:23;;;;;;;3.37;2.97;;;;;;;22.69;61.55;98787.75;5108073;28;20265;-71
2022/05/18 07:39:51;;;;;;;4.20;2.93;;;;;;;22.73;60.64;98789.09;5110690;28;20218;-70
2022/05/18 07:42:17;;;;;;;3.70;2.80;;;;;;;22.87;60.75;98790.31;5110239;28;20214;-71
2022/05/18 07:44:44;;;;;;;4.20;2.83;;;;;;;23.01;60.84;98795.88;5109116;28;20267;-70
2022/05/18 07:47:10;;;;;;;3.00;2.70;;;;;;;23.05;60.34;98791.81;5107336;28;20234;-71
2022/05/18 07:49:39;;;;;;;5.53;3.20;;;;;;;23.09;61.27;98790.47;5110324;28;20221;-71
2022/05/18 07:52:07;;;;;;;3.97;3.20;;;;;;;23.20;58.60;98792.88;5109152;28;20586;-71
2022/05/18 07:54:34;;;;;;;3.33;3.00;;;;;;;23.26;61.44;98786.81;5107145;28;20212;-71
2022/05/18 07:57:02;;;;;;;3.37;2.80;;;;;;;23.36;60.60;98782.06;5107398;28;20214;-71
2022/05/18 07:59:28;;;;;;;3.20;2.77;;;;;;;23.54;61.60;98780.00;5110182;28;20210;-71
2022/05/18 08:01:55;;;;;;;3.70;3.20;;;;;;;23.66;61.73;98781.34;5104878;28;20676;-70
2022/05/18 08:04:21;;;;;;;4.47;3.13;;;;;;;23.78;59.47;98782.66;5099086;28;20218;-70
2022/05/18 08:06:48;;;;;;;4.90;3.30;;;;;;;23.82;58.12;98784.00;5101390;28;20241;-70
2022/05/18 08:09:15;;;;;;;4.37;3.00;;;;;;;23.89;58.56;98779.63;5098114;28;20250;-71
2022/05/18 08:17:11;;;;;;;3.20;2.90;;;;;;;24.11;56.77;98781.56;5098370;28;20225;-71
2022/05/18 08:19:37;;;;;;;4.57;3.27;;;;;;;24.13;55.18;98782.22;5096519;28;20276;-71
2022/05/18 08:22:05;;;;;;;3.93;3.30;;;;;;;24.17;56.73;98788.97;5098866;28;20210;-71
2022/05/18 08:24:31;;;;;;;4.57;2.87;;;;;;;24.33;56.28;98788.06;5100888;28;20683;-71
2022/05/18 08:26:58;;;;;;;3.33;3.00;;;;;;;24.46;55.21;98788.31;5098042;28;20257;-72
2022/05/18 08:29:24;;;;;;;5.03;3.40;;;;;;;24.58;54.96;98792.34;5107331;28;20237;-71
2022/05/18 08:31:53;;;;;;;4.07;2.97;;;;;;;24.61;54.38;98792.84;5101478;28;20211;-71
2022/05/18 08:34:19;;;;;;;4.77;3.43;;;;;;;24.56;53.14;98792.47;5101152;28;20597;-72
2022/05/18 08:36:46;;;;;;;3.67;2.90;;;;;;;24.66;53.73;98790.44;5097598;28;20284;-71
2022/05/18 08:39:12;;;;;;;3.87;2.83;;;;;;;24.57;54.08;98786.09;5097561;28;20716;-70
2022/05/18 08:41:44;;;;;;;3.93;3.10;;;;;;;24.68;53.91;98782.97;5098032;28;20238;-71
2022/05/18 08:44:20;;;;;;;4.10;3.00;;;;;;;24.85;54.62;98795.38;5100608;28;20245;-71
2022/05/18 08:46:55;;;;;;;3.83;3.07;;;;;;;25.05;51.63;98785.75;5095901;28;20248;-71
2022/05/18 08:49:37;;;;;;;4.13;2.73;;;;;;;25.10;51.05;98788.78;5097275;28;20225;-71
2022/05/18 08:52:19;;;;;;;4.60;3.23;;;;;;;25.25;51.57;98796.97;5106105;28;20225;-71
2022/05/18 08:54:56;;;;;;;4.40;2.80;;;;;;;25.30;51.64;98789.97;5109004;28;20217;-71
2022/05/18 08:57:28;;;;;;;3.20;2.70;;;;;;;25.26;48.97;98793.22;5108691;28;20680;-72
2022/05/18 08:59:58;;;;;;;2.97;2.60;;;;;;;25.21;50.35;98796.47;5105821;28;20564;-71
2022/05/18 09:02:29;;;;;;;3.20;2.90;;;;;;;25.46;50.41;98795.25;5108628;28;20210;-70
2022/05/18 09:05:02;;;;;;;5.13;3.03;;;;;;;25.44;49.35;98794.59;5108720;28;20221;-71
2022/05/18 09:07:35;;;;;;;3.13;2.80;;;;;;;25.45;48.99;98795.44;5106419;28;20291;-71
2022/05/18 09:10:13;;;;;;;4.13;3.33;;;;;;;25.50;48.82;98793.88;5108223;28;20275;-71
2022/05/18 09:12:41;;;;;;;3.73;3.07;;;;;;;25.37;49.13;98793.63;5107077;28;20299;-71
2022/05/18 09:15:12;;;;;;;3.97;3.17;;;;;;;25.41;50.23;98791.44;5108739;28;20210;-71
2022/05/18 09:17:48;;;;;;;3.23;2.50;;;;;;;25.50;49.99;98787.59;5099579;28;20214;-71
2022/05/18 09:20:23;;;;;;;3.30;3.00;;;;;;;25.59;46.98;98790.03;5097007;28;20218;-70
2022/05/18 09:23:10;;;;;;;4.43;2.63;;;;;;;25.59;49.11;98790.03;5096934;28;20210;-70
2022/05/18 09:25:48;;;;;;;3.40;2.90;;;;;;;25.81;47.39;98783.72;5106603;28;20210;-71
2022/05/18 09:28:29;;;;;;;3.20;2.90;;;;;;;25.92;48.20;98790.59;5101855;28;20226;-71
2022/05/18 09:31:11;;;;;;;3.75;2.90;;;;;;;25.99;46.29;98791.50;5108916;28;20217;-71
2022/05/18 09:33:55;;;;;;;3.20;2.90;;;;;;;25.96;46.17;98797.31;5107559;28;20214;-71
2022/05/18 09:36:37;;;;;;;3.57;2.50;;;;;;;25.86;47.51;98792.16;5108049;28;20225;-71
2022/05/18 09:39:08;;;;;;;2.77;2.57;;;;;;;25.98;47.95;98796.06;5103116;28;20283;-71
2022/05/18 09:41:39;;;;;;;3.00;2.80;;;;;;;26.08;48.08;98785.81;5107884;28;20635;-71
2022/05/18 09:44:13;;;;;;;3.17;2.75;;;;;;;26.31;46.92;98778.41;5107949;28;20707;-71
2022/05/18 09:46:42;;;;;;;3.17;2.67;;;;;;;26.44;46.53;98786.72;5107134;28;20241;-71
2022/05/18 09:49:16;;;;;;;3.55;2.70;;;;;;;26.53;44.39;98779.31;5105755;28;20577;-72
2022/05/18 09:51:45;;;;;;;3.15;2.90;;;;;;;26.43;44.61;98773.31;5107977;28;20210;-71
2022/05/18 09:54:12;;;;;;;2.90;2.60;;;;;;;26.42;45.13;98771.66;5108267;28;20222;-71
2022/05/18 09:56:44;;;;;;;3.78;2.63;;;;;;;26.60;44.79;98780.25;5105772;28;20224;-71
2022/05/18 09:59:16;;;;;;;3.13;2.33;;;;;;;26.65;42.76;98780.53;5107339;28;20210;-71
2022/05/18 10:07:30;;;;;;;3.15;2.85;;;;;;;26.61;42.71;98755.66;5095045;28;20606;-71
2022/05/18 10:10:02;;;;;;;2.60;2.40;;;;;;;26.75;43.24;98754.75;5095984;28;20250;-71
2022/05/18 10:12:32;;;;;;;3.38;2.47;;;;;;;26.91;43.38;98756.38;5099051;28;20214;-71
2022/05/18 10:15:03;;;;;;;2.63;2.42;;;;;;;27.07;42.78;98754.25;5095694;28;20221;-71
2022/05/18 10:17:33;;;;;;;3.08;2.78;;;;;;;27.17;42.45;98751.22;5096014;28;20214;-71
2022/05/18 10:20:06;;;;;;;3.47;2.72;;;;;;;27.25;42.09;98751.94;5096082;28;20214;-71
2022/05/18 10:22:40;;;;;;;4.65;2.90;;;;;;;27.44;40.67;98751.25;5098859;28;20221;-72
2022/05/18 10:25:10;;;;;;;3.17;2.83;;;;;;;27.31;41.23;98756.56;5095632;28;20220;-71
2022/05/18 10:27:39;;;;;;;3.40;2.55;;;;;;;27.40;40.96;98744.56;5098881;28;20225;-71
2022/05/18 10:30:10;;;;;;;4.53;2.23;;;;;;;27.41;40.76;98748.94;5106809;28;20233;-71
2022/05/18 10:32:51;;;;;;;4.22;2.38;;;;;;;27.36;42.40;98740.53;5095087;28;20226;-71
2022/05/18 10:35:32;;;;;;;4.20;2.58;;;;;;;27.46;41.70;98746.47;5095912;28;20314;-71
2022/05/18 10:38:01;;;;;;;2.67;2.22;;;;;;;27.50;40.43;98747.75;5098208;28;20210;-71
2022/05/18 10:40:28;;;;;;;2.55;2.33;;;;;;;27.59;40.14;98746.56;5096734;28;20219;-70
2022/05/18 10:42:58;;;;;;;3.35;2.40;;;;;;;27.51;39.91;98744.00;5095737;28;20242;-71
2022/05/18 10:45:35;;;;;;;2.50;2.17;;;;;;;27.44;40.80;98743.09;5095762;28;20267;-71
2022/05/18 10:48:06;;;;;;;2.45;2.25;;;;;;;27.48;39.25;98738.97;5103848;28;20238;-71
2022/05/18 10:50:36;;;;;;;2.47;2.28;;;;;;;27.42;39.74;98744.38;5107345;28;20233;-71
2022/05/18 10:53:28;;;;;;;3.83;2.47;;;;;;;27.31;39.77;98743.00;5107295;28;20217;-71
2022/05/18 10:56:03;;;;;;;4.00;2.35;;;;;;;27.40;41.35;98742.66;5104283;28;20238;-71
2022/05/18 10:58:32;;;;;;;2.28;2.00;;;;;;;27.59;39.57;98733.00;5106286;28;20296;-71
2022/05/18 11:01:02;;;;;;;2.85;2.17;;;;;;;27.66;38.64;98736.59;5107506;28;20214;-73
2022/05/18 11:03:35;;;;;;;2.38;2.13;;;;;;;27.57;38.24;98726.94;5105432;28;20210;-72
2022/05/18 11:06:08;;;;;;;2.33;2.13;;;;;;;27.54;38.44;98730.03;5106470;28;20211;-73
2022/05/18 11:08:36;;;;;;;2.75;1.90;;;;;;;27.65;39.32;98719.44;5107336;28;20234;-72
2022/05/18 11:11:14;;;;;;;3.58;2.15;;;;;;;27.60;39.32;98721.09;5106847;28;20214;-72
2022/05/18 11:13:46;;;;;;;1.92;1.83;;;;;;;27.77;38.46;98717.06;5107378;28;20698;-72
2022/05/18 11:16:28;;;;;;;2.25;2.03;;;;;;;27.85;38.63;98709.56;5099000;28;20211;-72
2022/05/18 11:19:03;;;;;;;2.03;1.80;;;;;;;27.98;37.47;98711.50;5102481;28;20226;-72
2022/05/18 11:21:42;;;;;;;1.95;1.70;;;;;;;27.97;38.12;98707.13;5107334;28;20209;-72
2022/05/18 11:24:23;;;;;;;3.92;2.10;;;;;;;28.05;37.23;98709.66;5099079;28;20219;-72
2022/05/18 11:27:01;;;;;;;2.38;1.95;;;;;;;27.94;37.74;98712.97;5100115;28;20263;-72
2022/05/18 11:29:42;;;;;;;1.98;1.83;;;;;;;27.93;36.77;98706.69;5103392;28;20582;-72
2022/05/18 11:32:32;;;;;;;5.75;2.30;;;;;;;27.98;37.46;98697.91;5102805;28;20591;-72
2022/05/18 11:35:10;;;;;;;2.10;1.90;;;;;;;27.91;37.41;98694.34;5105142;28;20216;-72
2022/05/18 11:37:59;;;;;;;3.40;1.85;;;;;;;28.04;38.21;98695.25;5102540;28;20222;-72
2022/05/18 11:40:38;;;;;;;3.45;1.70;;;;;;;28.08;37.56;98692.97;5105176;28;20293;-72
2022/05/18 11:43:29;;;;;;;3.00;2.00;;;;;;;28.30;36.62;98705.41;5110818;28;20629;-72
2022/05/18 11:46:13;;;;;;;2.63;1.77;;;;;;;28.27;35.00;98694.91;5110335;28;20214;-72
2022/05/18 11:48:50;;;;;;;2.75;1.75;;;;;;;28.16;35.61;98696.34;5104468;28;20233;-72
2022/05/18 11:51:29;;;;;;;1.98;1.88;;;;;;;28.13;35.70;98693.19;5103216;28;20225;-72
2022/05/18 11:54:07;;;;;;;2.78;2.10;;;;;;;28.19;37.46;98695.09;5098214;28;20287;-72
2022/05/18 11:56:40;;;;;;;3.10;2.00;;;;;;;28.37;35.96;98698.94;5100520;28;20579;-72
2022/05/18 11:59:31;;;;;;;2.40;1.90;;;;;;;28.13;35.03;98680.41;5099600;28;20206;-72